Terminal Aerodrome Forecast
Issued by NWS

Home | Current Version | Previous Version | Text Only | Print | Product List | Glossary On
Versions: 1 2 3 4 5 6 7 8 9 10 11 12 13
595
FTUS44 KLZK 080343 AAA
TAFLLQ
TAF AMD
KLLQ 080343Z 0804/0824 24007KT P6SM BKN250
     FM080800 30010G18KT P6SM SCT150 BKN250
     FM081200 30014G22KT P6SM SCT040
     FM081800 32016G26KT P6SM BKN040=

USA.gov is the U.S. government's official web portal to all federal, state and local government web resources and services.